Terminal Aerodrome Forecast
Issued by NWS Quad Cities IA IL

Home | Current Version | Previous Version | Text Only | Print | Product List | Glossary On
Versions: 1 2 3 4 5 6 7 8 9 10 11 12 13 14 15 16 17 18
000
FTUS43 KDVN 141100
TAFMLI
TAF
KMLI 141134Z 1412/1512 17003KT P6SM BKN070
     FM141800 20005KT P6SM SCT090
     FM150000 12004KT P6SM SCT250
     FM151100 VRB03KT P6SM OVC100=

USA.gov is the U.S. government's official web portal to all federal, state and local government web resources and services.